Map

Track Data

SID SEASON NUMBER BASIN SUBBASIN NAME ISO_TIME NATURE LAT LON WMO_WIND WMO_PRES WMO_AGENCY TRACK_TYPE DIST2LAND LANDFALL IFLAG USA_AGENCY USA_ATCF_ID USA_LAT USA_LON USA_RECORD USA_STATUS USA_WIND USA_PRES USA_SSHS USA_R34_NE USA_R34_SE USA_R34_SW USA_R34_NW USA_R50_NE USA_R50_SE USA_R50_SW USA_R50_NW USA_R64_NE USA_R64_SE USA_R64_SW USA_R64_NW USA_POCI USA_ROCI USA_RMW USA_EYE TOKYO_LAT TOKYO_LON TOKYO_GRADE TOKYO_WIND TOKYO_PRES TOKYO_R50_DIR TOKYO_R50_LONG TOKYO_R50_SHORT TOKYO_R30_DIR TOKYO_R30_LONG TOKYO_R30_SHORT TOKYO_LAND CMA_LAT CMA_LON CMA_CAT CMA_WIND CMA_PRES HKO_LAT HKO_LON HKO_CAT HKO_WIND HKO_PRES NEWDELHI_LAT NEWDELHI_LON NEWDELHI_GRADE NEWDELHI_WIND NEWDELHI_PRES NEWDELHI_CI NEWDELHI_DP NEWDELHI_POCI REUNION_LAT REUNION_LON REUNION_TYPE REUNION_WIND REUNION_PRES REUNION_TNUM REUNION_CI REUNION_RMW REUNION_R34_NE REUNION_R34_SE REUNION_R34_SW REUNION_R34_NW REUNION_R50_NE REUNION_R50_SE REUNION_R50_SW REUNION_R50_NW REUNION_R64_NE REUNION_R64_SE REUNION_R64_SW REUNION_R64_NW BOM_LAT BOM_LON BOM_TYPE BOM_WIND BOM_PRES BOM_TNUM BOM_CI BOM_RMW BOM_R34_NE BOM_R34_SE BOM_R34_SW BOM_R34_NW BOM_R50_NE BOM_R50_SE BOM_R50_SW BOM_R50_NW BOM_R64_NE BOM_R64_SE BOM_R64_SW BOM_R64_NW BOM_ROCI BOM_POCI BOM_EYE BOM_POS_METHOD BOM_PRES_METHOD NADI_LAT NADI_LON NADI_CAT NADI_WIND NADI_PRES WELLINGTON_LAT WELLINGTON_LON WELLINGTON_WIND WELLINGTON_PRES DS824_LAT DS824_LON DS824_STAGE DS824_WIND DS824_PRES TD9636_LAT TD9636_LON TD9636_STAGE TD9636_WIND TD9636_PRES TD9635_LAT TD9635_LON TD9635_WIND TD9635_PRES TD9635_ROCI NEUMANN_LAT NEUMANN_LON NEUMANN_CLASS NEUMANN_WIND NEUMANN_PRES MLC_LAT MLC_LON MLC_CLASS MLC_WIND MLC_PRES USA_GUST BOM_GUST BOM_GUST_PER REUNION_GUST REUNION_GUST_PER USA_SEAHGT USA_SEARAD_NE USA_SEARAD_SE USA_SEARAD_SW USA_SEARAD_NW STORM_SPEED STORM_DIR
1877332N23284 1877 36 NA NA NOT_NAMED 1877-11-28 00:00:00 TS 23.2000 -76.5000 40 hurdat_atl main 178 152 O_____________ hurdat_atl AL081877 23.2000 -76.5000 TS 40 0 17 12
1877332N23284 1877 36 NA NA NOT_NAMED 1877-11-28 03:00:00 TS 24.0126 -76.3130 main 152 145 P_____________ AL081877 24.0126 -76.3130 TS 40 0 17 12
1877332N23284 1877 36 NA NA NOT_NAMED 1877-11-28 06:00:00 TS 24.9000 -76.1000 40 hurdat_atl main 167 167 O_____________ hurdat_atl AL081877 24.9000 -76.1000 TS 40 0 20 13
1877332N23284 1877 36 NA NA NOT_NAMED 1877-11-28 09:00:00 TS 25.9124 -75.8368 main 238 238 P_____________ AL081877 25.9124 -75.8368 TS 40 0 22 14
1877332N23284 1877 36 NA NA NOT_NAMED 1877-11-28 12:00:00 TS 27.0000 -75.5000 40 hurdat_atl main 327 327 O_____________ hurdat_atl AL081877 27.0000 -75.5000 TS 40 0 23 17
1877332N23284 1877 36 NA NA NOT_NAMED 1877-11-28 15:00:00 TS 28.0849 -75.0867 main 441 441 P_____________ AL081877 28.0849 -75.0867 TS 40 0 23 20
1877332N23284 1877 36 NA NA NOT_NAMED 1877-11-28 18:00:00 TS 29.2000 -74.6000 40 hurdat_atl main 567 539 O_____________ hurdat_atl AL081877 29.2000 -74.6000 TS 40 0 25 21
1877332N23284 1877 36 NA NA NOT_NAMED 1877-11-28 21:00:00 TS 30.3724 -74.0649 main 529 456 P_____________ AL081877 30.3724 -74.0649 TS 45 0 25 22
1877332N23284 1877 36 NA NA NOT_NAMED 1877-11-29 00:00:00 TS 31.5000 -73.5000 50 hurdat_atl main 452 412 O_____________ hurdat_atl AL081877 31.5000 -73.5000 TS 50 0 23 24
1877332N23284 1877 36 NA NA NOT_NAMED 1877-11-29 03:00:00 TS 32.4642 -72.9842 main 405 389 P_____________ AL081877 32.4642 -72.9842 TS 50 0 21 26
1877332N23284 1877 36 NA NA NOT_NAMED 1877-11-29 06:00:00 TS 33.4000 -72.4000 50 hurdat_atl main 388 375 O_____________ hurdat_atl AL081877 33.4000 -72.4000 TS 50 0 22 30
1877332N23284 1877 36 NA NA NOT_NAMED 1877-11-29 09:00:00 TS 34.3672 -71.6634 main 378 378 P_____________ AL081877 34.3672 -71.6634 TS 50 0 25 32
1877332N23284 1877 36 NA NA NOT_NAMED 1877-11-29 12:00:00 TS 35.5000 -70.8000 50 hurdat_atl main 424 423 O_____________ hurdat_atl AL081877 35.5000 -70.8000 TS 50 0 29 30
1877332N23284 1877 36 NA NA NOT_NAMED 1877-11-29 15:00:00 TS 36.9235 -69.8855 main 480 377 P_____________ AL081877 36.9235 -69.8855 TS 50 0 34 28
1877332N23284 1877 36 NA NA NOT_NAMED 1877-11-29 18:00:00 TS 38.5000 -68.8000 50 hurdat_atl main 370 282 O_____________ hurdat_atl AL081877 38.5000 -68.8000 TS 50 0 37 32
1877332N23284 1877 36 NA NA NOT_NAMED 1877-11-29 21:00:00 TS 40.0439 -67.4300 main 288 224 P_____________ AL081877 40.0439 -67.4300 TS 45 0 38 35
1877332N23284 1877 36 NA NA NOT_NAMED 1877-11-30 00:00:00 ET 41.6000 -66.0000 40 hurdat_atl main 212 64 O_____________ hurdat_atl AL081877 41.6000 -66.0000 EX 40 -4 36 32
1877332N23284 1877 36 NA NA NOT_NAMED 1877-11-30 03:00:00 ET 43.0924 -64.8400 main 60 0 P_____________ AL081877 43.0924 -64.8400 EX 40 -4 36 29
1877332N23284 1877 36 NA NA NOT_NAMED 1877-11-30 06:00:00 ET 44.7000 -63.6000 40 hurdat_atl main 0 0 O_____________ hurdat_atl AL081877 44.7000 -63.6000 EX 40 -4 40 31
1877332N23284 1877 36 NA NA NOT_NAMED 1877-11-30 09:00:00 ET 46.5319 -61.9344 main 18 18 P_____________ AL081877 46.5319 -61.9344 EX 40 -4 45 33
1877332N23284 1877 36 NA NA NOT_NAMED 1877-11-30 12:00:00 ET 48.5000 -60.0000 40 hurdat_atl main 66 35 O_____________ hurdat_atl AL081877 48.5000 -60.0000 EX 40 -4 48 34
1877332N23284 1877 36 NA NA NOT_NAMED 1877-11-30 15:00:00 ET 50.5043 -57.9270 main 30 0 P_____________ AL081877 50.5043 -57.9270 EX 40 -4 48 34
1877332N23284 1877 36 NA NA NOT_NAMED 1877-11-30 18:00:00 ET 52.5000 -55.7000 40 hurdat_atl main 11 O_____________ hurdat_atl AL081877 52.5000 -55.7000 EX 40 -4 48 34

About IBTrACS Database

This database is a web-friendly format of International Best Track Archive for Climate Stewardship (IBTrACS), a global best track data archive curated by NOAA dating back to 1842.

Updated: 2021-10-27